CheckWX is a tool to help pilots better visualize weather data.  It is not intended as a substitute for an official pre-flight weather briefing.

06:12:51 UTC

KGSB METAR
Seymour Johnson Air Force Base
Goldsboro, North Carolina, USA
Current

17 mins ago

KGSB 120556Z AUTO 00000KT 10SM CLR 24/24 A2983 RMK AO2 SLP103 T02440235 10303 20243 58003 $
Observed
Jul-12 @ 05:56 UTC
Visibility
10 SM
Flight Rules
VFR
Cloud Levels
  • Clear skies
Temperature
24°C / 75°F
Dewpoint
24°C / 75°F
Humidity
100%
Altimeter
29.83" Hg
Pressure
1010.12 hPa
Previous

1 hour ago

KGSB 120456Z AUTO 00000KT 10SM CLR 25/23 A2983 RMK AO2 SLP103 T02480234 403350221 $
Observed
Jul-12 @ 04:56 UTC
Visibility
10 SM
Flight Rules
VFR
Cloud Levels
  • Clear skies
Dewpoint
23°C / 73°F
Humidity
89%
Altimeter
29.83" Hg
Pressure
1010.12 hPa
Previous

2 hours ago

KGSB 120356Z AUTO 00000KT 10SM BKN085 25/23 A2984 RMK AO2 SLP107 T02520230 $
Observed
Jul-12 @ 03:56 UTC
Visibility
10 SM
Flight Rules
VFR
Cloud Levels
  • Broken at 8,500' AGL
Temperature
25°C / 77°F
Dewpoint
23°C / 73°F
Humidity
89%
Altimeter
29.84" Hg
Pressure
1010.52 hPa